sensor_id;sensor_type;location;lat;lon;timestamp;P1;durP1;ratioP1;P2;durP2;ratioP2
23747;SDS011;12054;53.662;10.126;2023-02-22T00:00:08;13.27;;;5.22;;
23747;SDS011;12054;53.662;10.126;2023-02-22T00:02:43;14.95;;;5.97;;
23747;SDS011;12054;53.662;10.126;2023-02-22T00:05:12;21.40;;;6.22;;
23747;SDS011;12054;53.662;10.126;2023-02-22T00:07:40;14.10;;;5.72;;
23747;SDS011;12054;53.662;10.126;2023-02-22T00:10:08;17.27;;;6.05;;
23747;SDS011;12054;53.662;10.126;2023-02-22T00:12:37;16.60;;;6.20;;
23747;SDS011;12054;53.662;10.126;2023-02-22T00:15:07;14.50;;;6.10;;
23747;SDS011;12054;53.662;10.126;2023-02-22T00:17:34;17.90;;;5.97;;
23747;SDS011;12054;53.662;10.126;2023-02-22T00:20:00;15.35;;;5.97;;
23747;SDS011;12054;53.662;10.126;2023-02-22T00:22:26;13.82;;;5.53;;
23747;SDS011;12054;53.662;10.126;2023-02-22T00:24:51;15.40;;;5.55;;
23747;SDS011;12054;53.662;10.126;2023-02-22T00:27:17;16.65;;;5.53;;
23747;SDS011;12054;53.662;10.126;2023-02-22T00:29:45;18.63;;;5.90;;
23747;SDS011;12054;53.662;10.126;2023-02-22T00:32:11;13.55;;;5.72;;
23747;SDS011;12054;53.662;10.126;2023-02-22T00:34:37;15.23;;;5.97;;
23747;SDS011;12054;53.662;10.126;2023-02-22T00:37:02;12.38;;;4.90;;
23747;SDS011;12054;53.662;10.126;2023-02-22T00:39:29;18.73;;;5.60;;
23747;SDS011;12054;53.662;10.126;2023-02-22T00:41:55;18.77;;;5.25;;
23747;SDS011;12054;53.662;10.126;2023-02-22T00:44:20;18.50;;;5.20;;
23747;SDS011;12054;53.662;10.126;2023-02-22T00:46:46;19.70;;;5.32;;
23747;SDS011;12054;53.662;10.126;2023-02-22T00:49:13;17.02;;;5.63;;
23747;SDS011;12054;53.662;10.126;2023-02-22T00:51:41;10.88;;;4.53;;
23747;SDS011;12054;53.662;10.126;2023-02-22T00:54:07;17.80;;;4.70;;
23747;SDS011;12054;53.662;10.126;2023-02-22T00:56:35;15.60;;;4.90;;
23747;SDS011;12054;53.662;10.126;2023-02-22T00:59:01;11.52;;;4.10;;
23747;SDS011;12054;53.662;10.126;2023-02-22T01:01:28;13.05;;;4.65;;
23747;SDS011;12054;53.662;10.126;2023-02-22T01:03:54;12.13;;;4.82;;
23747;SDS011;12054;53.662;10.126;2023-02-22T01:06:20;14.98;;;4.70;;
23747;SDS011;12054;53.662;10.126;2023-02-22T01:08:46;10.50;;;4.35;;
23747;SDS011;12054;53.662;10.126;2023-02-22T01:11:13;10.45;;;4.22;;
23747;SDS011;12054;53.662;10.126;2023-02-22T01:13:39;15.02;;;4.22;;
23747;SDS011;12054;53.662;10.126;2023-02-22T01:16:06;14.25;;;4.82;;
23747;SDS011;12054;53.662;10.126;2023-02-22T01:18:35;13.02;;;4.70;;
23747;SDS011;12054;53.662;10.126;2023-02-22T01:21:01;12.93;;;4.25;;
23747;SDS011;12054;53.662;10.126;2023-02-22T01:23:27;13.80;;;5.28;;
23747;SDS011;12054;53.662;10.126;2023-02-22T01:25:53;16.25;;;5.20;;
23747;SDS011;12054;53.662;10.126;2023-02-22T01:28:18;15.23;;;5.40;;
23747;SDS011;12054;53.662;10.126;2023-02-22T01:30:46;15.85;;;5.80;;
23747;SDS011;12054;53.662;10.126;2023-02-22T01:33:12;15.88;;;5.63;;
23747;SDS011;12054;53.662;10.126;2023-02-22T01:35:40;16.55;;;5.43;;
23747;SDS011;12054;53.662;10.126;2023-02-22T01:38:07;15.90;;;5.65;;
23747;SDS011;12054;53.662;10.126;2023-02-22T01:40:36;11.35;;;5.78;;
23747;SDS011;12054;53.662;10.126;2023-02-22T01:43:04;16.13;;;6.80;;
23747;SDS011;12054;53.662;10.126;2023-02-22T01:45:44;19.42;;;6.53;;
23747;SDS011;12054;53.662;10.126;2023-02-22T01:48:28;17.73;;;6.43;;
23747;SDS011;12054;53.662;10.126;2023-02-22T01:51:19;14.15;;;6.40;;
23747;SDS011;12054;53.662;10.126;2023-02-22T01:56:29;13.93;;;6.25;;
23747;SDS011;12054;53.662;10.126;2023-02-22T01:59:00;17.05;;;6.82;;
23747;SDS011;12054;53.662;10.126;2023-02-22T02:01:30;18.10;;;6.38;;
23747;SDS011;12054;53.662;10.126;2023-02-22T02:03:57;16.65;;;5.95;;
23747;SDS011;12054;53.662;10.126;2023-02-22T02:06:25;17.92;;;6.80;;
23747;SDS011;12054;53.662;10.126;2023-02-22T02:11:29;14.68;;;6.50;;
23747;SDS011;12054;53.662;10.126;2023-02-22T02:13:56;16.83;;;6.05;;
23747;SDS011;12054;53.662;10.126;2023-02-22T02:16:29;15.82;;;6.70;;
23747;SDS011;12054;53.662;10.126;2023-02-22T02:19:05;18.17;;;6.43;;
23747;SDS011;12054;53.662;10.126;2023-02-22T02:27:00;14.77;;;5.80;;
23747;SDS011;12054;53.662;10.126;2023-02-22T02:32:46;14.73;;;5.82;;
23747;SDS011;12054;53.662;10.126;2023-02-22T02:35:35;17.60;;;5.80;;
23747;SDS011;12054;53.662;10.126;2023-02-22T02:40:44;13.57;;;5.78;;
23747;SDS011;12054;53.662;10.126;2023-02-22T02:46:13;16.92;;;5.90;;
23747;SDS011;12054;53.662;10.126;2023-02-22T02:49:01;15.98;;;5.68;;
23747;SDS011;12054;53.662;10.126;2023-02-22T02:51:39;15.70;;;5.32;;
23747;SDS011;12054;53.662;10.126;2023-02-22T02:54:08;15.77;;;5.22;;
23747;SDS011;12054;53.662;10.126;2023-02-22T02:56:36;18.17;;;5.97;;
23747;SDS011;12054;53.662;10.126;2023-02-22T02:59:02;21.92;;;5.63;;
23747;SDS011;12054;53.662;10.126;2023-02-22T03:01:34;14.68;;;5.25;;
23747;SDS011;12054;53.662;10.126;2023-02-22T03:07:04;14.88;;;5.45;;
23747;SDS011;12054;53.662;10.126;2023-02-22T03:10:01;20.48;;;5.47;;
23747;SDS011;12054;53.662;10.126;2023-02-22T03:15:59;15.88;;;5.15;;
23747;SDS011;12054;53.662;10.126;2023-02-22T03:21:35;19.13;;;4.80;;
23747;SDS011;12054;53.662;10.126;2023-02-22T03:25:01;16.48;;;5.13;;
23747;SDS011;12054;53.662;10.126;2023-02-22T03:30:09;14.55;;;5.32;;
23747;SDS011;12054;53.662;10.126;2023-02-22T03:32:43;19.42;;;5.55;;
23747;SDS011;12054;53.662;10.126;2023-02-22T03:35:13;21.83;;;5.70;;
23747;SDS011;12054;53.662;10.126;2023-02-22T03:37:44;15.93;;;5.47;;
23747;SDS011;12054;53.662;10.126;2023-02-22T03:40:23;17.27;;;6.63;;
23747;SDS011;12054;53.662;10.126;2023-02-22T03:42:56;21.40;;;5.88;;
23747;SDS011;12054;53.662;10.126;2023-02-22T03:45:37;17.58;;;5.72;;
23747;SDS011;12054;53.662;10.126;2023-02-22T03:48:10;14.45;;;5.05;;
23747;SDS011;12054;53.662;10.126;2023-02-22T03:51:00;19.15;;;5.82;;
23747;SDS011;12054;53.662;10.126;2023-02-22T03:53:28;21.80;;;6.75;;
23747;SDS011;12054;53.662;10.126;2023-02-22T03:55:56;16.35;;;5.93;;
23747;SDS011;12054;53.662;10.126;2023-02-22T03:58:23;13.60;;;5.03;;
23747;SDS011;12054;53.662;10.126;2023-02-22T04:00:53;18.60;;;5.70;;
23747;SDS011;12054;53.662;10.126;2023-02-22T04:03:19;17.73;;;5.93;;
23747;SDS011;12054;53.662;10.126;2023-02-22T04:05:46;19.42;;;6.03;;
23747;SDS011;12054;53.662;10.126;2023-02-22T04:08:12;17.05;;;5.95;;
23747;SDS011;12054;53.662;10.126;2023-02-22T04:10:38;16.67;;;5.80;;
23747;SDS011;12054;53.662;10.126;2023-02-22T04:13:03;15.40;;;5.85;;
23747;SDS011;12054;53.662;10.126;2023-02-22T04:15:31;19.00;;;6.00;;
23747;SDS011;12054;53.662;10.126;2023-02-22T04:17:56;16.50;;;5.32;;
23747;SDS011;12054;53.662;10.126;2023-02-22T04:20:22;16.70;;;5.32;;
23747;SDS011;12054;53.662;10.126;2023-02-22T04:22:49;15.18;;;6.05;;
23747;SDS011;12054;53.662;10.126;2023-02-22T04:25:16;20.13;;;6.22;;
23747;SDS011;12054;53.662;10.126;2023-02-22T04:27:42;15.85;;;5.13;;
23747;SDS011;12054;53.662;10.126;2023-02-22T04:30:09;16.60;;;5.20;;
23747;SDS011;12054;53.662;10.126;2023-02-22T04:32:35;14.32;;;5.13;;
23747;SDS011;12054;53.662;10.126;2023-02-22T04:35:02;19.42;;;5.53;;
23747;SDS011;12054;53.662;10.126;2023-02-22T04:37:28;14.18;;;5.75;;
23747;SDS011;12054;53.662;10.126;2023-02-22T04:39:54;14.85;;;4.97;;
23747;SDS011;12054;53.662;10.126;2023-02-22T04:42:20;14.15;;;5.07;;
23747;SDS011;12054;53.662;10.126;2023-02-22T04:44:45;15.15;;;5.05;;
23747;SDS011;12054;53.662;10.126;2023-02-22T04:47:11;14.55;;;5.60;;
23747;SDS011;12054;53.662;10.126;2023-02-22T04:49:36;18.27;;;5.80;;
23747;SDS011;12054;53.662;10.126;2023-02-22T04:52:02;12.07;;;4.82;;
23747;SDS011;12054;53.662;10.126;2023-02-22T04:54:27;17.98;;;5.50;;
23747;SDS011;12054;53.662;10.126;2023-02-22T04:56:53;15.95;;;5.32;;
23747;SDS011;12054;53.662;10.126;2023-02-22T04:59:18;14.52;;;5.40;;
23747;SDS011;12054;53.662;10.126;2023-02-22T05:01:44;15.98;;;5.03;;
23747;SDS011;12054;53.662;10.126;2023-02-22T05:04:10;13.18;;;4.90;;
23747;SDS011;12054;53.662;10.126;2023-02-22T05:06:35;16.85;;;5.82;;
23747;SDS011;12054;53.662;10.126;2023-02-22T05:09:01;12.52;;;4.93;;
23747;SDS011;12054;53.662;10.126;2023-02-22T05:11:26;10.93;;;5.00;;
23747;SDS011;12054;53.662;10.126;2023-02-22T05:13:52;16.83;;;4.68;;
23747;SDS011;12054;53.662;10.126;2023-02-22T05:16:18;15.13;;;5.10;;
23747;SDS011;12054;53.662;10.126;2023-02-22T05:18:44;17.40;;;4.90;;
23747;SDS011;12054;53.662;10.126;2023-02-22T05:21:09;15.88;;;5.00;;
23747;SDS011;12054;53.662;10.126;2023-02-22T05:23:35;13.95;;;5.38;;
23747;SDS011;12054;53.662;10.126;2023-02-22T05:26:00;14.13;;;5.70;;
23747;SDS011;12054;53.662;10.126;2023-02-22T05:28:26;12.57;;;5.13;;
23747;SDS011;12054;53.662;10.126;2023-02-22T05:30:52;17.10;;;5.72;;
23747;SDS011;12054;53.662;10.126;2023-02-22T05:33:17;15.70;;;5.60;;
23747;SDS011;12054;53.662;10.126;2023-02-22T05:35:43;15.57;;;6.05;;
23747;SDS011;12054;53.662;10.126;2023-02-22T05:38:11;16.60;;;6.15;;
23747;SDS011;12054;53.662;10.126;2023-02-22T05:40:39;16.23;;;5.75;;
23747;SDS011;12054;53.662;10.126;2023-02-22T05:43:05;17.52;;;6.20;;
23747;SDS011;12054;53.662;10.126;2023-02-22T05:45:31;19.70;;;6.90;;
23747;SDS011;12054;53.662;10.126;2023-02-22T05:47:57;16.35;;;6.07;;
23747;SDS011;12054;53.662;10.126;2023-02-22T05:50:22;14.98;;;6.13;;
23747;SDS011;12054;53.662;10.126;2023-02-22T05:52:48;17.85;;;7.25;;
23747;SDS011;12054;53.662;10.126;2023-02-22T05:55:15;16.73;;;6.35;;
23747;SDS011;12054;53.662;10.126;2023-02-22T05:57:42;13.82;;;7.10;;
23747;SDS011;12054;53.662;10.126;2023-02-22T06:00:08;22.45;;;7.47;;
23747;SDS011;12054;53.662;10.126;2023-02-22T06:02:35;16.70;;;6.40;;
23747;SDS011;12054;53.662;10.126;2023-02-22T06:05:00;18.02;;;8.07;;
23747;SDS011;12054;53.662;10.126;2023-02-22T06:07:26;18.42;;;7.85;;
23747;SDS011;12054;53.662;10.126;2023-02-22T06:09:52;20.02;;;7.80;;
23747;SDS011;12054;53.662;10.126;2023-02-22T06:12:17;18.48;;;8.43;;
23747;SDS011;12054;53.662;10.126;2023-02-22T06:14:43;17.23;;;7.90;;
23747;SDS011;12054;53.662;10.126;2023-02-22T06:17:10;21.17;;;8.30;;
23747;SDS011;12054;53.662;10.126;2023-02-22T06:19:37;22.50;;;8.68;;
23747;SDS011;12054;53.662;10.126;2023-02-22T06:22:04;21.65;;;7.90;;
23747;SDS011;12054;53.662;10.126;2023-02-22T06:24:30;18.73;;;8.43;;
23747;SDS011;12054;53.662;10.126;2023-02-22T06:26:57;23.52;;;9.10;;
23747;SDS011;12054;53.662;10.126;2023-02-22T06:29:25;22.52;;;9.52;;
23747;SDS011;12054;53.662;10.126;2023-02-22T06:31:52;23.25;;;9.43;;
23747;SDS011;12054;53.662;10.126;2023-02-22T06:34:18;24.45;;;9.57;;
23747;SDS011;12054;53.662;10.126;2023-02-22T06:36:45;21.35;;;9.25;;
23747;SDS011;12054;53.662;10.126;2023-02-22T06:39:12;25.48;;;10.70;;
23747;SDS011;12054;53.662;10.126;2023-02-22T06:41:40;29.90;;;9.70;;
23747;SDS011;12054;53.662;10.126;2023-02-22T06:44:06;26.52;;;10.65;;
23747;SDS011;12054;53.662;10.126;2023-02-22T06:46:32;25.63;;;9.50;;
23747;SDS011;12054;53.662;10.126;2023-02-22T06:48:58;24.73;;;10.23;;
23747;SDS011;12054;53.662;10.126;2023-02-22T06:51:24;28.77;;;9.90;;
23747;SDS011;12054;53.662;10.126;2023-02-22T06:53:50;28.13;;;9.90;;
23747;SDS011;12054;53.662;10.126;2023-02-22T06:56:16;29.08;;;10.85;;
23747;SDS011;12054;53.662;10.126;2023-02-22T06:58:42;34.00;;;11.57;;
23747;SDS011;12054;53.662;10.126;2023-02-22T07:01:07;32.10;;;10.85;;
23747;SDS011;12054;53.662;10.126;2023-02-22T07:03:33;27.33;;;10.75;;
23747;SDS011;12054;53.662;10.126;2023-02-22T07:05:59;26.73;;;10.23;;
23747;SDS011;12054;53.662;10.126;2023-02-22T07:08:26;25.67;;;9.35;;
23747;SDS011;12054;53.662;10.126;2023-02-22T07:10:52;35.05;;;11.13;;
23747;SDS011;12054;53.662;10.126;2023-02-22T07:13:17;28.95;;;10.25;;
23747;SDS011;12054;53.662;10.126;2023-02-22T07:15:43;30.20;;;9.85;;
23747;SDS011;12054;53.662;10.126;2023-02-22T07:18:08;28.48;;;10.05;;
23747;SDS011;12054;53.662;10.126;2023-02-22T07:20:35;33.40;;;11.07;;
23747;SDS011;12054;53.662;10.126;2023-02-22T07:23:01;32.85;;;11.32;;
23747;SDS011;12054;53.662;10.126;2023-02-22T07:25:27;29.92;;;10.90;;
23747;SDS011;12054;53.662;10.126;2023-02-22T07:27:53;21.63;;;8.57;;
23747;SDS011;12054;53.662;10.126;2023-02-22T07:30:22;27.13;;;10.48;;
23747;SDS011;12054;53.662;10.126;2023-02-22T07:32:55;28.85;;;10.45;;
23747;SDS011;12054;53.662;10.126;2023-02-22T07:37:47;28.67;;;10.73;;
23747;SDS011;12054;53.662;10.126;2023-02-22T07:40:13;35.58;;;12.25;;
23747;SDS011;12054;53.662;10.126;2023-02-22T07:45:28;28.80;;;10.82;;
23747;SDS011;12054;53.662;10.126;2023-02-22T07:47:55;28.50;;;10.73;;
23747;SDS011;12054;53.662;10.126;2023-02-22T07:50:21;33.40;;;10.98;;
23747;SDS011;12054;53.662;10.126;2023-02-22T07:52:49;30.95;;;10.38;;
23747;SDS011;12054;53.662;10.126;2023-02-22T07:55:17;33.58;;;11.23;;
23747;SDS011;12054;53.662;10.126;2023-02-22T07:57:45;28.85;;;10.27;;
23747;SDS011;12054;53.662;10.126;2023-02-22T08:00:11;28.35;;;11.00;;
23747;SDS011;12054;53.662;10.126;2023-02-22T08:02:40;29.83;;;10.60;;
23747;SDS011;12054;53.662;10.126;2023-02-22T08:05:06;26.85;;;10.15;;
23747;SDS011;12054;53.662;10.126;2023-02-22T08:07:34;23.65;;;10.10;;
23747;SDS011;12054;53.662;10.126;2023-02-22T08:10:00;25.58;;;10.30;;
23747;SDS011;12054;53.662;10.126;2023-02-22T08:12:30;24.08;;;10.32;;
23747;SDS011;12054;53.662;10.126;2023-02-22T08:15:00;24.88;;;10.35;;
23747;SDS011;12054;53.662;10.126;2023-02-22T08:17:25;26.48;;;9.70;;
23747;SDS011;12054;53.662;10.126;2023-02-22T08:19:51;28.55;;;11.50;;
23747;SDS011;12054;53.662;10.126;2023-02-22T08:22:16;26.55;;;11.30;;
23747;SDS011;12054;53.662;10.126;2023-02-22T08:24:43;23.30;;;10.35;;
23747;SDS011;12054;53.662;10.126;2023-02-22T08:27:08;26.20;;;10.45;;
23747;SDS011;12054;53.662;10.126;2023-02-22T08:29:34;25.60;;;10.05;;
23747;SDS011;12054;53.662;10.126;2023-02-22T08:32:00;26.50;;;10.35;;
23747;SDS011;12054;53.662;10.126;2023-02-22T08:34:25;27.27;;;10.68;;
23747;SDS011;12054;53.662;10.126;2023-02-22T08:36:51;26.00;;;10.80;;
23747;SDS011;12054;53.662;10.126;2023-02-22T08:39:17;26.42;;;10.05;;
23747;SDS011;12054;53.662;10.126;2023-02-22T08:41:43;28.55;;;10.90;;
23747;SDS011;12054;53.662;10.126;2023-02-22T08:44:08;28.67;;;12.05;;
23747;SDS011;12054;53.662;10.126;2023-02-22T08:46:34;24.83;;;10.65;;
23747;SDS011;12054;53.662;10.126;2023-02-22T08:48:59;26.98;;;11.75;;
23747;SDS011;12054;53.662;10.126;2023-02-22T08:51:25;28.60;;;11.23;;
23747;SDS011;12054;53.662;10.126;2023-02-22T08:53:51;30.33;;;11.23;;
23747;SDS011;12054;53.662;10.126;2023-02-22T08:56:17;26.88;;;10.43;;
23747;SDS011;12054;53.662;10.126;2023-02-22T08:58:43;28.38;;;10.23;;
23747;SDS011;12054;53.662;10.126;2023-02-22T09:01:08;24.30;;;10.40;;
23747;SDS011;12054;53.662;10.126;2023-02-22T09:03:34;25.50;;;12.10;;
23747;SDS011;12054;53.662;10.126;2023-02-22T09:05:59;22.35;;;9.13;;
23747;SDS011;12054;53.662;10.126;2023-02-22T09:08:25;26.00;;;11.25;;
23747;SDS011;12054;53.662;10.126;2023-02-22T09:10:50;26.50;;;10.57;;
23747;SDS011;12054;53.662;10.126;2023-02-22T09:13:16;27.83;;;12.20;;
23747;SDS011;12054;53.662;10.126;2023-02-22T09:15:42;26.00;;;10.38;;
23747;SDS011;12054;53.662;10.126;2023-02-22T09:18:09;28.42;;;11.48;;
23747;SDS011;12054;53.662;10.126;2023-02-22T09:20:36;28.00;;;10.50;;
23747;SDS011;12054;53.662;10.126;2023-02-22T09:23:02;25.30;;;10.70;;
23747;SDS011;12054;53.662;10.126;2023-02-22T09:25:29;24.88;;;10.85;;
23747;SDS011;12054;53.662;10.126;2023-02-22T09:27:55;29.75;;;11.70;;
23747;SDS011;12054;53.662;10.126;2023-02-22T09:30:24;30.25;;;11.50;;
23747;SDS011;12054;53.662;10.126;2023-02-22T09:32:50;28.67;;;10.80;;
23747;SDS011;12054;53.662;10.126;2023-02-22T09:35:18;24.92;;;10.77;;
23747;SDS011;12054;53.662;10.126;2023-02-22T09:37:44;25.98;;;11.85;;
23747;SDS011;12054;53.662;10.126;2023-02-22T09:40:18;39.38;;;12.15;;
23747;SDS011;12054;53.662;10.126;2023-02-22T09:42:55;30.58;;;12.43;;
23747;SDS011;12054;53.662;10.126;2023-02-22T09:45:59;24.52;;;10.88;;
23747;SDS011;12054;53.662;10.126;2023-02-22T09:48:39;25.90;;;10.68;;
23747;SDS011;12054;53.662;10.126;2023-02-22T09:51:13;23.98;;;9.95;;
23747;SDS011;12054;53.662;10.126;2023-02-22T09:53:42;26.25;;;11.18;;
23747;SDS011;12054;53.662;10.126;2023-02-22T09:56:11;26.98;;;11.30;;
23747;SDS011;12054;53.662;10.126;2023-02-22T09:58:40;23.13;;;10.10;;
23747;SDS011;12054;53.662;10.126;2023-02-22T10:01:31;24.30;;;10.60;;
23747;SDS011;12054;53.662;10.126;2023-02-22T10:09:44;24.25;;;9.93;;
23747;SDS011;12054;53.662;10.126;2023-02-22T10:12:14;26.70;;;10.57;;
23747;SDS011;12054;53.662;10.126;2023-02-22T10:24:04;22.98;;;10.00;;
23747;SDS011;12054;53.662;10.126;2023-02-22T10:27:02;21.67;;;10.20;;
23747;SDS011;12054;53.662;10.126;2023-02-22T10:29:40;20.65;;;10.02;;
23747;SDS011;12054;53.662;10.126;2023-02-22T10:32:14;24.52;;;10.48;;
23747;SDS011;12054;53.662;10.126;2023-02-22T10:34:49;22.45;;;10.30;;
23747;SDS011;12054;53.662;10.126;2023-02-22T10:37:24;22.42;;;9.80;;
23747;SDS011;12054;53.662;10.126;2023-02-22T10:40:01;21.75;;;10.15;;
23747;SDS011;12054;53.662;10.126;2023-02-22T10:42:42;20.13;;;9.00;;
23747;SDS011;12054;53.662;10.126;2023-02-22T10:45:25;19.17;;;8.98;;
23747;SDS011;12054;53.662;10.126;2023-02-22T10:47:54;22.63;;;10.00;;
23747;SDS011;12054;53.662;10.126;2023-02-22T10:50:23;21.48;;;10.38;;
23747;SDS011;12054;53.662;10.126;2023-02-22T10:52:53;22.02;;;10.02;;
23747;SDS011;12054;53.662;10.126;2023-02-22T10:55:20;22.10;;;9.00;;
23747;SDS011;12054;53.662;10.126;2023-02-22T10:57:46;23.45;;;10.20;;
23747;SDS011;12054;53.662;10.126;2023-02-22T11:00:21;24.77;;;11.20;;
23747;SDS011;12054;53.662;10.126;2023-02-22T11:02:58;21.27;;;9.15;;
23747;SDS011;12054;53.662;10.126;2023-02-22T11:05:26;20.85;;;10.40;;
23747;SDS011;12054;53.662;10.126;2023-02-22T11:07:52;21.58;;;9.43;;
23747;SDS011;12054;53.662;10.126;2023-02-22T11:10:49;22.20;;;10.52;;
23747;SDS011;12054;53.662;10.126;2023-02-22T11:15:52;19.88;;;9.82;;
23747;SDS011;12054;53.662;10.126;2023-02-22T11:18:52;21.65;;;9.70;;
23747;SDS011;12054;53.662;10.126;2023-02-22T11:21:12;18.30;;;8.73;;
23747;SDS011;12054;53.662;10.126;2023-02-22T11:23:44;21.25;;;10.10;;
23747;SDS011;12054;53.662;10.126;2023-02-22T11:26:11;22.20;;;9.02;;
23747;SDS011;12054;53.662;10.126;2023-02-22T11:28:43;18.10;;;9.73;;
23747;SDS011;12054;53.662;10.126;2023-02-22T11:33:48;20.70;;;9.60;;
23747;SDS011;12054;53.662;10.126;2023-02-22T11:39:20;26.67;;;10.25;;
23747;SDS011;12054;53.662;10.126;2023-02-22T11:41:51;21.75;;;10.65;;
23747;SDS011;12054;53.662;10.126;2023-02-22T11:44:29;17.98;;;9.35;;
23747;SDS011;12054;53.662;10.126;2023-02-22T11:46:57;19.33;;;9.95;;
23747;SDS011;12054;53.662;10.126;2023-02-22T11:49:31;17.60;;;8.32;;
23747;SDS011;12054;53.662;10.126;2023-02-22T11:52:21;18.50;;;9.30;;
23747;SDS011;12054;53.662;10.126;2023-02-22T12:08:46;18.95;;;10.45;;
23747;SDS011;12054;53.662;10.126;2023-02-22T12:21:39;18.88;;;9.73;;
23747;SDS011;12054;53.662;10.126;2023-02-22T12:24:21;19.17;;;9.40;;
23747;SDS011;12054;53.662;10.126;2023-02-22T12:26:56;18.35;;;9.13;;
23747;SDS011;12054;53.662;10.126;2023-02-22T12:29:35;15.55;;;7.85;;
23747;SDS011;12054;53.662;10.126;2023-02-22T12:32:34;20.73;;;10.13;;
23747;SDS011;12054;53.662;10.126;2023-02-22T12:35:24;17.92;;;8.15;;
23747;SDS011;12054;53.662;10.126;2023-02-22T12:40:49;20.55;;;9.43;;
23747;SDS011;12054;53.662;10.126;2023-02-22T12:43:44;19.08;;;9.15;;
23747;SDS011;12054;53.662;10.126;2023-02-22T12:46:30;20.73;;;9.73;;
23747;SDS011;12054;53.662;10.126;2023-02-22T12:49:13;29.88;;;10.35;;
23747;SDS011;12054;53.662;10.126;2023-02-22T12:54:20;17.73;;;9.13;;
23747;SDS011;12054;53.662;10.126;2023-02-22T12:57:10;19.13;;;8.90;;
23747;SDS011;12054;53.662;10.126;2023-02-22T13:00:10;19.40;;;9.38;;
23747;SDS011;12054;53.662;10.126;2023-02-22T13:02:45;20.00;;;9.23;;
23747;SDS011;12054;53.662;10.126;2023-02-22T13:05:20;18.13;;;8.52;;
23747;SDS011;12054;53.662;10.126;2023-02-22T13:08:11;17.45;;;9.05;;
23747;SDS011;12054;53.662;10.126;2023-02-22T13:10:56;16.95;;;8.48;;
23747;SDS011;12054;53.662;10.126;2023-02-22T13:13:48;19.38;;;9.18;;
23747;SDS011;12054;53.662;10.126;2023-02-22T13:24:00;16.95;;;8.50;;
23747;SDS011;12054;53.662;10.126;2023-02-22T13:26:58;16.75;;;8.18;;
23747;SDS011;12054;53.662;10.126;2023-02-22T13:29:37;19.23;;;9.40;;
23747;SDS011;12054;53.662;10.126;2023-02-22T13:43:29;17.88;;;9.85;;
23747;SDS011;12054;53.662;10.126;2023-02-22T13:57:03;18.05;;;8.82;;
23747;SDS011;12054;53.662;10.126;2023-02-22T13:59:41;16.48;;;8.40;;
23747;SDS011;12054;53.662;10.126;2023-02-22T14:02:12;20.23;;;9.27;;
23747;SDS011;12054;53.662;10.126;2023-02-22T14:08:05;22.88;;;9.73;;
23747;SDS011;12054;53.662;10.126;2023-02-22T14:10:58;15.65;;;7.43;;
23747;SDS011;12054;53.662;10.126;2023-02-22T14:13:26;16.70;;;8.57;;
23747;SDS011;12054;53.662;10.126;2023-02-22T14:18:28;17.35;;;9.20;;
23747;SDS011;12054;53.662;10.126;2023-02-22T14:23:34;18.05;;;8.95;;
23747;SDS011;12054;53.662;10.126;2023-02-22T14:26:11;15.90;;;8.60;;
23747;SDS011;12054;53.662;10.126;2023-02-22T14:28:47;18.52;;;9.20;;
23747;SDS011;12054;53.662;10.126;2023-02-22T14:42:50;17.58;;;9.55;;
23747;SDS011;12054;53.662;10.126;2023-02-22T14:50:58;18.67;;;9.25;;
23747;SDS011;12054;53.662;10.126;2023-02-22T14:56:16;21.73;;;10.15;;
23747;SDS011;12054;53.662;10.126;2023-02-22T14:58:54;18.20;;;9.38;;
23747;SDS011;12054;53.662;10.126;2023-02-22T15:01:35;16.85;;;9.35;;
23747;SDS011;12054;53.662;10.126;2023-02-22T15:04:22;17.60;;;10.25;;
23747;SDS011;12054;53.662;10.126;2023-02-22T15:06:55;24.77;;;10.57;;
23747;SDS011;12054;53.662;10.126;2023-02-22T15:09:23;17.80;;;9.05;;
23747;SDS011;12054;53.662;10.126;2023-02-22T15:11:54;20.30;;;10.35;;
23747;SDS011;12054;53.662;10.126;2023-02-22T15:14:42;18.60;;;9.48;;
23747;SDS011;12054;53.662;10.126;2023-02-22T15:17:21;22.45;;;10.50;;
23747;SDS011;12054;53.662;10.126;2023-02-22T15:19:51;17.63;;;9.10;;
23747;SDS011;12054;53.662;10.126;2023-02-22T15:22:25;19.10;;;10.13;;
23747;SDS011;12054;53.662;10.126;2023-02-22T15:25:00;20.27;;;10.13;;
23747;SDS011;12054;53.662;10.126;2023-02-22T15:27:29;18.88;;;9.50;;
23747;SDS011;12054;53.662;10.126;2023-02-22T15:29:58;22.15;;;9.85;;
23747;SDS011;12054;53.662;10.126;2023-02-22T15:32:31;21.23;;;10.48;;
23747;SDS011;12054;53.662;10.126;2023-02-22T15:35:15;16.77;;;9.07;;
23747;SDS011;12054;53.662;10.126;2023-02-22T15:38:02;19.25;;;10.02;;
23747;SDS011;12054;53.662;10.126;2023-02-22T15:40:39;18.17;;;9.38;;
23747;SDS011;12054;53.662;10.126;2023-02-22T15:43:17;17.58;;;9.05;;
23747;SDS011;12054;53.662;10.126;2023-02-22T15:45:52;15.73;;;8.55;;
23747;SDS011;12054;53.662;10.126;2023-02-22T15:48:19;15.73;;;9.07;;
23747;SDS011;12054;53.662;10.126;2023-02-22T15:53:40;17.35;;;9.25;;
23747;SDS011;12054;53.662;10.126;2023-02-22T15:56:18;16.58;;;9.13;;
23747;SDS011;12054;53.662;10.126;2023-02-22T15:58:50;18.35;;;9.05;;
23747;SDS011;12054;53.662;10.126;2023-02-22T16:01:41;18.15;;;9.27;;
23747;SDS011;12054;53.662;10.126;2023-02-22T16:04:19;18.15;;;9.60;;
23747;SDS011;12054;53.662;10.126;2023-02-22T16:06:47;16.02;;;8.75;;
23747;SDS011;12054;53.662;10.126;2023-02-22T16:09:15;16.75;;;9.52;;
23747;SDS011;12054;53.662;10.126;2023-02-22T16:12:10;17.10;;;9.07;;
23747;SDS011;12054;53.662;10.126;2023-02-22T16:14:49;15.98;;;8.35;;
23747;SDS011;12054;53.662;10.126;2023-02-22T16:22:36;17.58;;;9.70;;
23747;SDS011;12054;53.662;10.126;2023-02-22T16:27:58;19.50;;;9.75;;
23747;SDS011;12054;53.662;10.126;2023-02-22T16:32:57;18.08;;;8.70;;
23747;SDS011;12054;53.662;10.126;2023-02-22T16:35:25;18.65;;;9.13;;
23747;SDS011;12054;53.662;10.126;2023-02-22T16:37:58;18.08;;;9.38;;
23747;SDS011;12054;53.662;10.126;2023-02-22T16:42:59;19.10;;;10.05;;
23747;SDS011;12054;53.662;10.126;2023-02-22T16:45:26;19.38;;;9.95;;
23747;SDS011;12054;53.662;10.126;2023-02-22T16:47:51;20.00;;;9.88;;
23747;SDS011;12054;53.662;10.126;2023-02-22T16:50:17;19.90;;;10.13;;
23747;SDS011;12054;53.662;10.126;2023-02-22T16:52:44;20.00;;;10.00;;
23747;SDS011;12054;53.662;10.126;2023-02-22T16:55:11;18.88;;;10.40;;
23747;SDS011;12054;53.662;10.126;2023-02-22T16:57:38;22.50;;;10.65;;
23747;SDS011;12054;53.662;10.126;2023-02-22T17:00:07;22.30;;;10.75;;
23747;SDS011;12054;53.662;10.126;2023-02-22T17:02:41;23.80;;;11.27;;
23747;SDS011;12054;53.662;10.126;2023-02-22T17:05:07;18.77;;;9.77;;
23747;SDS011;12054;53.662;10.126;2023-02-22T17:07:36;19.60;;;9.98;;
23747;SDS011;12054;53.662;10.126;2023-02-22T17:10:04;20.40;;;11.18;;
23747;SDS011;12054;53.662;10.126;2023-02-22T17:12:30;23.70;;;10.90;;
23747;SDS011;12054;53.662;10.126;2023-02-22T17:14:56;18.77;;;9.45;;
23747;SDS011;12054;53.662;10.126;2023-02-22T17:17:22;20.80;;;10.65;;
23747;SDS011;12054;53.662;10.126;2023-02-22T17:19:47;18.90;;;10.77;;
23747;SDS011;12054;53.662;10.126;2023-02-22T17:22:17;24.02;;;10.63;;